Terminal Aerodrome Forecast
Issued by NWS

Current Version | Previous Version | Text Only | Print | Product List | Glossary On
Versions: 1 2 3 4 5 6 7 8 9 10 11 12 13 14 15 16 17 18 19 20 21 22 23 24 25 26 27 28 29 30 31
462
FTUS41 KGYX 250850 AAA
TAFLEB
TAF AMD
KLEB 250850Z 2509/2606 20003KT P6SM SKC WS020/27035KT
     FM251300 26012G20KT P6SM SCT200
     FM252300 20008KT P6SM BKN200=

USA.gov is the U.S. government's official web portal to all federal, state and local government web resources and services.